Time;durP1;ratioP1;P1;durP2;ratioP2;P2;SDS_P1;SDS_P2;PMS_P1;PMS_P2;Temp;Humidity;BMP_temperature;BMP_pressure;BME280_temperature;BME280_humidity;BME280_pressure;Samples;Min_cycle;Max_cycle;Signal;HPM_P1;HPM_P2
2022/07/20 00:00:11;;;;;;;5.90;3.40;;;26.10;46.70;;;26.12;45.98;100333.19;4982479;28;20047;-76
2022/07/20 00:02:38;;;;;;;4.22;3.05;;;26.00;46.20;;;26.08;44.85;100334.47;4982248;28;20043;-76
2022/07/20 00:05:06;;;;;;;4.65;3.35;;;26.00;45.80;;;25.99;44.23;100329.91;4982442;28;20035;-77
2022/07/20 00:07:33;;;;;;;5.85;3.83;;;25.90;45.60;;;25.91;44.34;100328.75;4966424;28;20460;-78
2022/07/20 00:12:46;;;;;;;8.60;3.47;;;25.80;46.10;;;25.77;47.31;100332.66;4966701;28;20055;-77
2022/07/20 00:15:14;;;;;;;4.97;3.40;;;25.70;46.60;;;25.71;49.16;100338.63;4983062;28;20445;-77
2022/07/20 00:17:41;;;;;;;4.43;3.25;;;25.70;47.30;;;25.58;51.16;100335.31;4966477;28;20122;-77
2022/07/20 00:20:10;;;;;;;5.25;3.45;;;25.60;47.60;;;25.49;51.00;100326.19;4951371;28;20485;-76
2022/07/20 00:22:37;;;;;;;4.57;3.28;;;25.50;47.50;;;25.39;50.97;100327.94;4980926;28;20047;-77
2022/07/20 00:25:04;;;;;;;6.00;3.88;;;25.40;47.70;;;25.29;51.55;100331.47;4980909;28;20053;-77
2022/07/20 00:27:31;;;;;;;4.68;3.47;;;25.30;47.50;;;25.30;49.51;100316.16;4950558;28;20134;-76
2022/07/20 00:29:58;;;;;;;12.73;3.47;;;25.20;47.10;;;25.23;48.37;100323.91;4980359;28;20039;-77
2022/07/20 00:32:25;;;;;;;6.15;3.35;;;25.20;46.90;;;25.30;47.96;100322.41;4980464;28;20058;-76
2022/07/20 00:34:52;;;;;;;4.75;3.75;;;25.10;46.70;;;25.26;48.02;100329.00;4980682;28;20058;-76
2022/07/20 00:37:19;;;;;;;5.65;4.10;;;25.10;46.80;;;25.34;46.49;100322.97;4950222;28;20043;-77
2022/07/20 00:39:48;;;;;;;7.40;3.78;;;25.10;46.50;;;25.38;46.63;100323.56;4980608;28;20050;-77
2022/07/20 00:42:15;;;;;;;8.75;3.50;;;25.10;46.50;;;25.34;45.60;100318.44;4980628;28;20043;-77
2022/07/20 00:44:41;;;;;;;6.05;3.55;;;25.10;46.20;;;25.36;45.77;100320.97;4980679;28;20051;-76
2022/07/20 00:47:08;;;;;;;5.40;4.10;;;25.10;46.30;;;25.55;44.60;100325.63;4975013;28;20051;-76
2022/07/20 00:49:35;;;;;;;5.50;3.70;;;25.20;46.00;;;25.43;45.14;100319.47;4949243;28;20689;-76
2022/07/20 00:52:03;;;;;;;7.18;3.80;;;25.10;46.10;;;25.42;45.06;100323.16;4976978;28;20515;-77
2022/07/20 00:54:31;;;;;;;5.20;4.05;;;25.20;46.20;;;25.55;43.84;100312.19;4968832;28;20079;-78
2022/07/20 00:56:59;;;;;;;6.22;4.28;;;25.10;45.90;;;25.59;43.66;100310.06;4980718;28;20047;-78
2022/07/20 00:59:27;;;;;;;5.15;4.28;;;25.20;45.80;;;25.73;43.44;100315.09;4965442;28;20114;-77
2022/07/20 01:01:55;;;;;;;6.47;3.83;;;25.30;45.80;;;25.68;42.86;100317.34;4966730;28;20052;-77
2022/07/20 01:04:23;;;;;;;6.10;3.90;;;25.30;45.70;;;25.65;42.61;100317.59;4951195;28;20106;-76
2022/07/20 01:06:51;;;;;;;8.38;3.97;;;25.30;45.40;;;25.67;43.16;100322.84;4968988;28;20134;-77
2022/07/20 01:09:20;;;;;;;7.45;4.57;;;25.30;45.60;;;25.66;43.68;100318.47;4969598;28;20150;-78
2022/07/20 01:11:47;;;;;;;7.50;3.88;;;25.30;45.90;;;25.55;43.69;100311.34;4954782;29;20128;-76
2022/07/20 01:14:14;;;;;;;7.07;4.05;;;25.30;45.80;;;25.60;43.30;100309.06;4970191;28;20047;-78
2022/07/20 01:16:41;;;;;;;4.40;3.63;;;25.30;45.70;;;25.66;43.72;100313.91;4977242;28;20154;-77
2022/07/20 01:19:09;;;;;;;5.43;3.97;;;25.30;45.80;;;25.53;43.52;100313.31;4979582;28;20897;-76
2022/07/20 01:21:40;;;;;;;6.75;3.80;;;25.20;45.70;;;25.51;43.26;100312.56;4988042;28;20047;-77
2022/07/20 01:24:10;;;;;;;5.68;3.92;;;25.20;45.80;;;25.39;44.21;100303.72;4983348;28;20031;-77
2022/07/20 01:26:43;;;;;;;4.97;3.88;;;25.20;46.20;;;25.47;43.40;100307.44;4968592;28;20456;-76
2022/07/20 01:29:13;;;;;;;8.43;4.13;;;25.20;45.90;;;25.38;44.37;100310.09;4966599;28;20078;-77
2022/07/20 01:31:40;;;;;;;6.55;3.78;;;25.10;46.20;;;25.38;44.25;100302.00;4967047;28;20055;-77
2022/07/20 01:34:08;;;;;;;8.73;4.93;;;25.10;46.10;;;25.23;43.94;100306.91;4967197;28;20043;-77
2022/07/20 01:36:35;;;;;;;5.40;3.90;;;25.10;46.00;;;25.17;44.43;100309.13;4979329;28;20047;-76
2022/07/20 01:39:02;;;;;;;6.05;4.07;;;25.00;46.20;;;25.15;44.29;100308.41;4961742;28;20497;-76
2022/07/20 01:41:29;;;;;;;6.88;4.47;;;25.00;46.20;;;25.11;43.93;100308.81;4971548;28;20295;-77
2022/07/20 01:43:56;;;;;;;5.32;3.92;;;24.90;46.00;;;25.12;44.41;100300.63;4979253;28;20416;-77
2022/07/20 01:46:23;;;;;;;4.80;4.03;;;24.90;46.20;;;25.10;45.30;100307.97;4982766;28;20058;-78
2022/07/20 01:48:50;;;;;;;6.78;4.05;;;24.90;46.50;;;25.11;44.89;100303.44;4988365;28;20584;-77
2022/07/20 01:51:18;;;;;;;6.93;4.40;;;24.80;46.50;;;25.16;44.04;100296.66;5005025;28;20057;-77
2022/07/20 01:53:45;;;;;;;5.40;3.92;;;24.80;46.10;;;25.20;43.48;100305.34;5003784;28;20452;-76
2022/07/20 01:56:12;;;;;;;6.97;4.63;;;24.80;45.90;;;25.19;43.46;100312.53;4972230;28;20035;-77
2022/07/20 01:58:39;;;;;;;5.82;3.67;;;24.80;45.90;;;25.16;43.81;100312.81;4986919;28;20706;-76
2022/07/20 02:01:07;;;;;;;5.65;3.72;;;24.90;46.20;;;25.10;44.18;100310.66;4986060;28;20511;-77
2022/07/20 02:03:35;;;;;;;8.32;4.25;;;24.80;46.10;;;25.13;43.78;100307.69;4971852;28;21097;-77
2022/07/20 02:06:02;;;;;;;6.75;4.07;;;24.80;46.10;;;25.24;43.48;100314.84;5003114;28;20210;-76
2022/07/20 02:08:29;;;;;;;5.88;4.13;;;24.80;46.00;;;25.23;43.42;100310.44;4987116;28;20103;-76
2022/07/20 02:10:56;;;;;;;6.38;3.65;;;24.90;46.00;;;25.23;43.43;100309.59;5002831;28;20700;-76
2022/07/20 02:13:23;;;;;;;8.48;4.53;;;24.90;46.00;;;25.20;42.95;100318.78;4986206;28;20054;-77
2022/07/20 02:18:36;;;;;;;5.22;3.40;;;24.90;46.00;;;25.25;42.82;100323.78;4967671;28;20057;-77
2022/07/20 02:21:03;;;;;;;5.90;3.70;;;24.90;46.00;;;25.22;43.03;100315.97;4953260;28;20043;-77
2022/07/20 02:23:30;;;;;;;4.25;3.25;;;24.90;45.90;;;25.17;42.93;100316.38;4984426;28;20149;-78
2022/07/20 02:25:57;;;;;;;4.95;3.85;;;24.80;45.90;;;25.16;42.92;100323.59;4998657;28;20516;-76
2022/07/20 02:28:24;;;;;;;7.93;4.57;;;24.80;45.80;;;25.02;42.92;100318.53;4983655;28;20054;-76
2022/07/20 02:30:51;;;;;;;9.20;4.25;;;24.80;45.70;;;24.97;43.62;100323.47;4983776;28;20054;-74
2022/07/20 02:33:18;;;;;;;5.28;4.28;;;24.70;46.10;;;24.96;43.61;100329.84;4984527;28;20071;-78
2022/07/20 02:35:45;;;;;;;7.60;3.95;;;24.60;46.20;;;24.87;43.92;100326.09;4969248;28;20062;-75
2022/07/20 02:38:12;;;;;;;6.95;3.70;;;24.60;46.20;;;24.74;44.63;100332.50;4985561;28;20047;-77
2022/07/20 02:40:39;;;;;;;7.38;3.92;;;24.60;46.40;;;24.68;44.73;100333.03;4984432;28;20090;-75
2022/07/20 02:43:06;;;;;;;6.63;3.83;;;24.50;46.30;;;24.54;45.68;100334.16;4983465;28;20039;-76
2022/07/20 02:45:33;;;;;;;4.65;3.97;;;24.50;46.80;;;24.48;46.60;100319.41;4983409;28;20517;-76
2022/07/20 02:48:03;;;;;;;7.05;4.53;;;24.40;47.00;;;24.40;47.76;100324.56;4995641;28;20047;-77
2022/07/20 02:50:37;;;;;;;;;;;24.30;47.40;;;24.52;46.81;100317.31;4970898;28;20504;-76
2022/07/20 02:53:09;;;;;;;5.00;3.90;;;24.30;47.10;;;24.54;46.21;100311.81;4970994;28;19922;-78
2022/07/20 02:55:38;;;;;;;5.25;4.00;;;24.30;46.90;;;24.46;46.77;100307.09;4969335;28;20057;-77
2022/07/20 02:58:06;;;;;;;5.00;3.53;;;24.30;47.20;;;24.62;45.25;100309.31;4967576;28;20047;-78
2022/07/20 03:00:33;;;;;;;5.07;3.70;;;24.20;46.80;;;24.63;45.24;100305.63;4968798;28;20095;-78
2022/07/20 03:03:00;;;;;;;5.00;3.30;;;24.30;46.90;;;24.61;45.52;100308.47;4969345;28;20035;-77
2022/07/20 03:05:28;;;;;;;4.80;4.00;;;24.30;46.90;;;24.66;44.75;100304.53;4951835;28;20047;-78
2022/07/20 03:07:55;;;;;;;7.05;3.90;;;24.30;46.60;;;24.64;45.05;100308.22;4968388;28;20070;-76
2022/07/20 03:10:22;;;;;;;5.28;3.70;;;24.30;46.80;;;24.71;44.82;100307.69;4952419;28;20085;-77
2022/07/20 03:12:49;;;;;;;6.25;3.75;;;24.30;46.70;;;24.73;44.87;100311.97;4969018;28;20106;-78
2022/07/20 03:15:16;;;;;;;7.53;4.10;;;24.40;46.70;;;24.67;44.69;100308.94;4951142;28;20061;-77
2022/07/20 03:17:50;;;;;;;5.43;3.67;;;24.40;46.70;;;24.68;44.56;100308.81;4967102;28;20051;-78
2022/07/20 03:20:27;;;;;;;5.80;3.67;;;24.40;46.60;;;24.59;44.75;100313.13;4950176;28;20049;-76
2022/07/20 03:22:56;;;;;;;5.60;3.65;;;24.30;46.60;;;24.51;44.69;100318.28;4965412;28;20039;-76
2022/07/20 03:25:24;;;;;;;7.38;4.15;;;24.30;46.50;;;24.44;45.39;100319.81;4951195;28;20043;-76
2022/07/20 03:27:56;;;;;;;7.03;3.78;;;24.30;46.70;;;24.46;44.30;100325.91;4965831;28;20066;-76
2022/07/20 03:30:25;;;;;;;5.82;3.60;;;24.20;46.50;;;24.38;44.89;100321.16;4965261;28;20054;-76
2022/07/20 03:32:54;;;;;;;5.38;3.63;;;24.20;46.80;;;24.33;45.50;100318.00;4966402;28;20051;-76
2022/07/20 03:35:21;;;;;;;7.25;3.90;;;24.10;46.80;;;24.32;44.78;100318.97;4966367;28;20154;-76
2022/07/20 03:37:48;;;;;;;9.18;4.22;;;24.00;46.90;;;24.28;45.76;100318.41;4966140;28;20052;-76
2022/07/20 03:40:15;;;;;;;6.40;3.65;;;24.00;47.00;;;24.16;46.26;100319.41;4965262;28;20055;-76
2022/07/20 03:42:42;;;;;;;7.53;4.00;;;24.00;47.00;;;24.11;46.26;100319.78;4966833;28;20043;-76
2022/07/20 03:45:10;;;;;;;5.10;4.00;;;24.00;47.20;;;24.14;47.09;100316.00;4966952;28;20069;-77
2022/07/20 03:47:37;;;;;;;5.72;4.43;;;23.90;47.40;;;24.14;46.16;100321.38;4976998;28;20089;-76
2022/07/20 03:50:05;;;;;;;6.45;3.80;;;23.90;47.40;;;24.11;47.79;100319.78;5001474;28;20504;-76
2022/07/20 03:52:32;;;;;;;5.85;3.80;;;23.90;47.70;;;24.04;47.44;100314.06;5001301;28;20046;-76
2022/07/20 03:54:59;;;;;;;6.72;4.15;;;23.80;47.50;;;24.13;47.05;100316.97;4985402;28;20039;-76
2022/07/20 03:57:27;;;;;;;6.35;3.92;;;23.80;47.60;;;24.04;46.96;100315.88;4972499;28;20697;-77
2022/07/20 03:59:54;;;;;;;5.85;3.72;;;23.80;47.50;;;24.02;47.34;100328.56;4980804;28;20038;-76
2022/07/20 04:02:21;;;;;;;4.95;4.05;;;23.80;47.40;;;24.00;47.45;100322.44;4966381;28;20055;-76
2022/07/20 04:04:48;;;;;;;6.45;4.40;;;23.80;47.60;;;23.88;49.38;100335.94;4968180;28;20114;-77
2022/07/20 04:07:15;;;;;;;8.07;4.05;;;23.70;48.00;;;23.84;48.89;100334.44;4967509;28;20134;-76
2022/07/20 04:09:46;;;;;;;7.35;4.25;;;23.70;47.80;;;23.72;50.86;100338.97;4954612;28;20054;-78
2022/07/20 04:12:21;;;;;;;5.93;3.75;;;23.60;48.40;;;23.80;50.10;100343.75;4982761;28;20130;-78
2022/07/20 04:14:49;;;;;;;5.45;3.50;;;23.60;48.10;;;23.57;52.56;100338.38;4951755;28;20047;-77
2022/07/20 04:17:18;;;;;;;4.63;3.80;;;23.50;48.80;;;23.65;51.03;100340.47;4966261;28;20043;-75
2022/07/20 04:19:46;;;;;;;6.38;4.68;;;23.50;48.50;;;23.69;51.05;100341.91;4980358;28;20048;-75
2022/07/20 04:22:13;;;;;;;5.63;3.75;;;23.50;48.60;;;23.71;52.25;100341.78;4965218;28;20043;-75
2022/07/20 04:24:40;;;;;;;5.90;3.67;;;23.50;48.80;;;23.75;52.29;100344.09;4960917;28;20051;-74
2022/07/20 04:27:07;;;;;;;4.63;3.63;;;23.50;48.90;;;23.73;53.25;100340.69;4943298;29;20046;-74
2022/07/20 04:29:34;;;;;;;8.68;4.55;;;23.50;49.10;;;23.82;51.46;100346.31;4963693;28;20055;-73
2022/07/20 04:32:02;;;;;;;6.47;3.97;;;23.50;48.70;;;23.92;50.65;100344.56;4949724;28;20467;-75
2022/07/20 04:34:29;;;;;;;6.45;3.78;;;23.60;48.80;;;23.93;50.99;100343.59;4964678;28;20062;-76
2022/07/20 04:36:56;;;;;;;7.38;3.83;;;23.60;48.70;;;23.90;51.47;100349.22;4963403;28;20366;-77
2022/07/20 04:39:23;;;;;;;8.43;3.50;;;23.60;48.70;;;23.95;50.21;100355.06;4965897;28;20039;-80
2022/07/20 04:41:50;;;;;;;5.40;3.60;;;23.60;48.50;;;23.99;50.20;100363.75;4970815;28;20062;-76
2022/07/20 04:44:18;;;;;;;10.23;3.72;;;23.60;48.50;;;24.05;49.83;100356.06;4961658;28;20050;-77
2022/07/20 04:46:45;;;;;;;6.40;4.78;;;23.70;48.50;;;23.94;52.09;100354.22;4957232;28;20044;-76
2022/07/20 04:49:12;;;;;;;5.57;3.80;;;23.70;48.90;;;23.98;51.49;100353.97;4987477;28;20046;-77
2022/07/20 04:51:39;;;;;;;7.05;4.32;;;23.80;48.90;;;24.04;51.38;100353.50;4976080;28;20043;-75
2022/07/20 04:54:06;;;;;;;7.28;4.25;;;23.70;48.80;;;23.99;51.53;100356.53;4964265;28;20046;-77
2022/07/20 04:56:33;;;;;;;8.10;4.22;;;23.70;48.80;;;23.97;51.44;100352.25;4989357;28;20522;-76
2022/07/20 04:59:00;;;;;;;5.25;4.10;;;23.70;48.80;;;23.91;52.06;100353.59;4988431;28;20520;-76
2022/07/20 05:01:27;;;;;;;8.13;3.85;;;23.70;48.90;;;23.98;52.74;100359.34;4965222;28;20397;-77
2022/07/20 05:03:55;;;;;;;7.25;4.25;;;23.70;49.10;;;23.95;53.43;100355.06;4980720;28;20389;-75
2022/07/20 05:06:22;;;;;;;6.70;3.78;;;23.70;49.20;;;24.02;53.55;100360.78;4980927;28;20059;-76
2022/07/20 05:08:49;;;;;;;7.00;3.80;;;23.70;49.30;;;24.05;52.63;100363.28;4949947;28;20058;-75
2022/07/20 05:11:17;;;;;;;5.32;4.00;;;23.80;49.30;;;24.05;52.88;100385.63;4964357;28;20051;-76
2022/07/20 05:13:44;;;;;;;6.57;4.00;;;23.70;49.20;;;24.07;52.76;100380.97;4975220;28;20050;-76
2022/07/20 05:16:11;;;;;;;9.05;3.67;;;23.80;49.30;;;24.08;52.49;100393.44;4950036;28;20039;-77
2022/07/20 05:18:38;;;;;;;12.60;3.95;;;23.80;49.10;;;24.10;52.54;100404.06;4980791;28;20489;-78
2022/07/20 05:21:06;;;;;;;8.10;4.35;;;23.90;49.20;;;24.19;51.60;100397.09;4981729;28;20044;-77
2022/07/20 05:23:33;;;;;;;9.18;4.47;;;23.90;48.80;;;24.15;51.95;100399.16;4981605;28;20047;-77
2022/07/20 05:26:01;;;;;;;8.00;4.30;;;24.00;49.00;;;24.20;51.61;100398.81;4981128;28;20079;-77
2022/07/20 05:28:29;;;;;;;7.72;4.57;;;24.00;48.90;;;24.26;52.31;100400.97;4964619;28;20129;-75
2022/07/20 05:30:56;;;;;;;9.48;3.75;;;24.00;49.10;;;24.36;51.08;100403.78;4963851;28;20055;-75
2022/07/20 05:33:23;;;;;;;10.77;4.45;;;24.00;49.00;;;24.41;51.34;100406.94;4963002;28;20046;-75
2022/07/20 05:35:51;;;;;;;8.98;4.47;;;24.00;49.10;;;24.43;52.45;100409.50;4949770;28;20047;-75
2022/07/20 05:38:19;;;;;;;9.60;4.35;;;24.10;49.30;;;24.44;51.54;100419.28;4964616;28;20044;-75
2022/07/20 05:40:48;;;;;;;15.18;5.15;;;24.10;49.30;;;24.47;53.28;100411.81;4949572;28;20043;-75
2022/07/20 05:43:15;;;;;;;7.00;4.10;;;24.10;49.60;;;24.50;55.01;100414.25;4962830;28;20047;-75
2022/07/20 05:45:42;;;;;;;11.77;4.72;;;24.20;50.00;;;24.56;55.54;100417.41;4963372;28;20496;-75
2022/07/20 05:48:14;;;;;;;8.13;4.72;;;24.20;50.10;;;24.58;56.97;100407.38;4963925;28;20043;-76
2022/07/20 05:50:43;;;;;;;8.27;4.13;;;24.20;50.20;;;24.63;54.00;100405.16;4948703;28;20051;-75
2022/07/20 05:53:12;;;;;;;9.13;4.80;;;24.30;50.10;;;24.67;54.83;100411.16;4983158;28;20051;-75
2022/07/20 05:55:41;;;;;;;7.80;4.57;;;24.30;50.10;;;24.72;54.60;100414.28;4953123;28;20067;-76
2022/07/20 05:58:10;;;;;;;9.57;4.27;;;24.40;50.20;;;24.76;55.03;100421.19;4967647;28;20439;-75
2022/07/20 06:00:37;;;;;;;7.80;4.20;;;24.40;50.00;;;24.83;56.24;100410.75;4983199;28;20290;-76
2022/07/20 06:03:06;;;;;;;9.95;4.45;;;24.50;50.50;;;24.87;54.69;100410.34;4983947;28;20142;-76
2022/07/20 06:05:34;;;;;;;5.38;3.97;;;24.80;50.30;;;24.90;54.41;100417.31;4983406;28;20044;-75
2022/07/20 06:08:02;;;;;;;10.13;4.35;;;24.50;49.90;;;25.01;53.60;100413.72;4967025;28;20049;-74
2022/07/20 06:10:33;;;;;;;6.63;4.18;;;24.50;50.00;;;25.03;53.84;100426.06;4967671;28;20063;-74
2022/07/20 06:13:01;;;;;;;6.22;4.10;;;24.60;50.00;;;25.10;51.21;100422.84;4967312;28;20054;-74
2022/07/20 06:15:36;;;;;;;7.90;4.40;;;24.60;49.40;;;25.13;51.43;100420.75;4980214;28;20047;-74
2022/07/20 06:18:03;;;;;;;8.60;4.90;;;24.70;49.60;;;25.19;53.20;100430.16;4975826;28;20602;-75
2022/07/20 06:20:30;;;;;;;9.75;4.28;;;24.80;49.90;;;25.22;53.02;100427.19;4965926;28;20063;-74
2022/07/20 06:22:58;;;;;;;7.35;4.35;;;24.80;49.70;;;25.26;52.70;100434.00;4994399;28;20043;-75
2022/07/20 06:25:26;;;;;;;6.97;3.88;;;24.80;49.80;;;25.31;51.87;100426.41;4979391;28;20045;-74
2022/07/20 06:27:53;;;;;;;9.65;4.47;;;24.90;49.70;;;25.33;52.06;100423.56;4987314;28;20055;-75
2022/07/20 06:30:23;;;;;;;5.78;4.35;;;24.90;49.70;;;25.42;52.99;100428.19;4971205;28;20047;-74
2022/07/20 06:32:50;;;;;;;7.82;4.47;;;24.90;49.90;;;25.46;52.29;100418.84;5001357;28;20603;-74
2022/07/20 06:35:17;;;;;;;5.75;4.13;;;25.00;50.00;;;25.51;53.17;100420.31;4971703;28;20042;-75
2022/07/20 06:37:44;;;;;;;12.85;4.43;;;25.10;49.90;;;25.57;51.71;100427.88;4972545;28;20047;-75
2022/07/20 06:40:12;;;;;;;6.32;4.35;;;25.10;49.70;;;25.62;50.91;100431.88;4951049;28;20049;-75
2022/07/20 06:42:39;;;;;;;9.55;4.30;;;25.20;49.40;;;25.66;50.06;100437.81;4974973;28;20051;-75
2022/07/20 06:45:06;;;;;;;7.53;4.22;;;25.20;49.20;;;25.71;50.30;100434.75;4986265;28;20305;-75
2022/07/20 06:47:34;;;;;;;6.93;4.13;;;25.20;49.20;;;25.76;49.45;100419.88;4972548;28;20051;-75
2022/07/20 06:50:03;;;;;;;6.78;4.45;;;25.30;49.20;;;25.84;50.19;100432.69;4986316;28;20058;-75
2022/07/20 06:52:32;;;;;;;9.68;4.70;;;25.30;49.50;;;25.92;49.23;100434.69;4986309;28;20043;-75
2022/07/20 06:54:59;;;;;;;5.32;3.88;;;25.40;49.30;;;25.94;49.06;100430.03;4972452;28;20055;-75
2022/07/20 06:57:26;;;;;;;7.32;4.05;;;25.50;49.20;;;26.04;49.53;100436.31;5003044;28;20087;-75
2022/07/20 06:59:53;;;;;;;6.97;3.85;;;25.50;49.40;;;26.09;48.34;100437.75;4985841;28;20051;-76
2022/07/20 07:02:20;;;;;;;6.70;3.72;;;25.60;48.90;;;26.07;47.99;100439.72;4972170;28;20142;-74
2022/07/20 07:04:48;;;;;;;5.25;4.45;;;25.60;48.80;;;26.16;48.03;100439.75;4994033;28;20035;-74
2022/07/20 07:07:15;;;;;;;5.10;4.07;;;25.70;48.90;;;26.21;47.86;100434.00;4982242;28;20126;-74
2022/07/20 07:09:42;;;;;;;6.25;4.45;;;25.70;48.90;;;26.26;47.33;100439.81;4966498;28;20133;-73
2022/07/20 07:12:09;;;;;;;10.95;4.10;;;25.80;48.80;;;26.39;47.49;100436.00;4951926;28;20043;-73
2022/07/20 07:14:36;;;;;;;9.30;5.35;;;25.80;48.90;;;26.52;46.71;100444.72;4966204;28;20050;-73
2022/07/20 07:17:04;;;;;;;9.98;4.88;;;26.00;48.80;;;26.66;46.32;100442.59;4966334;28;20046;-74
2022/07/20 07:19:31;;;;;;;6.47;5.07;;;26.10;48.60;;;26.70;45.97;100450.28;4970742;28;20701;-72
2022/07/20 07:21:58;;;;;;;6.07;4.93;;;26.20;48.50;;;26.84;46.27;100451.69;4966482;28;20537;-73
2022/07/20 07:24:25;;;;;;;8.48;4.90;;;26.30;48.60;;;26.86;45.62;100454.31;4965897;28;20047;-74
2022/07/20 07:26:52;;;;;;;8.35;4.95;;;26.40;48.50;;;26.92;45.79;100459.13;4952108;28;20062;-73
2022/07/20 07:29:23;;;;;;;6.28;4.57;;;26.40;48.50;;;26.97;46.28;100458.69;4952174;28;20515;-73
2022/07/20 07:31:51;;;;;;;6.75;4.25;;;26.40;48.70;;;26.99;45.63;100446.75;4951715;28;20695;-74
2022/07/20 07:34:18;;;;;;;7.63;4.90;;;26.50;48.50;;;27.05;44.97;100445.31;4951143;28;20039;-73
2022/07/20 07:36:45;;;;;;;6.88;4.13;;;26.60;48.40;;;26.98;45.00;100439.66;4981307;28;20050;-73
2022/07/20 07:39:12;;;;;;;9.70;4.43;;;26.50;48.30;;;27.01;44.79;100441.22;4951671;28;20413;-73
2022/07/20 07:41:40;;;;;;;8.05;4.70;;;26.60;48.20;;;27.06;44.96;100436.22;4951100;28;20106;-74
2022/07/20 07:44:07;;;;;;;9.82;4.88;;;26.60;48.40;;;27.26;45.46;100428.13;4951068;28;20049;-73
2022/07/20 07:46:34;;;;;;;7.30;4.13;;;26.70;48.70;;;27.34;45.60;100436.34;4965513;28;20051;-73
2022/07/20 07:49:01;;;;;;;8.25;5.03;;;26.80;48.80;;;27.51;44.45;100439.28;4965647;28;20057;-74
2022/07/20 07:51:28;;;;;;;8.25;4.82;;;26.90;48.40;;;27.70;44.03;100433.84;4981959;28;20047;-74
2022/07/20 07:53:55;;;;;;;8.85;4.80;;;27.10;48.40;;;27.87;43.73;100434.13;4965783;28;20051;-74
2022/07/20 07:56:22;;;;;;;7.68;5.20;;;27.20;48.30;;;27.98;42.79;100446.59;4949946;28;20508;-74
2022/07/20 07:58:50;;;;;;;12.07;5.72;;;27.40;47.80;;;28.12;42.57;100437.97;4982016;28;20521;-74
2022/07/20 08:01:37;;;;;;;9.82;5.45;;;27.50;47.90;;;28.25;41.67;100434.94;4957396;28;20134;-78
2022/07/20 08:04:05;;;;;;;10.50;4.95;;;27.60;47.40;;;28.40;40.90;100429.84;4987577;28;20035;-78
2022/07/20 08:06:32;;;;;;;9.27;5.65;;;27.70;47.10;;;28.63;39.52;100437.56;4988096;28;20083;-75
2022/07/20 08:08:59;;;;;;;9.35;5.18;;;28.00;46.40;;;28.81;38.10;100443.00;4967263;28;20079;-77
2022/07/20 08:11:29;;;;;;;8.48;5.53;;;28.20;45.80;;;28.98;38.22;100440.44;4967409;28;20505;-78
2022/07/20 08:13:56;;;;;;;10.00;5.50;;;28.30;45.90;;;29.10;37.88;100438.34;4967507;28;20074;-77
2022/07/20 08:16:24;;;;;;;5.60;5.10;;;28.40;45.80;;;29.19;37.46;100437.41;4967134;28;20167;-77
2022/07/20 08:18:51;;;;;;;9.65;5.20;;;28.50;45.60;;;29.39;37.79;100432.63;4932337;28;20146;-78
2022/07/20 08:21:19;;;;;;;6.55;5.60;;;28.70;45.90;;;29.49;37.57;100440.69;4948396;28;20200;-76
2022/07/20 08:23:46;;;;;;;8.40;5.30;;;28.80;45.90;;;29.57;36.75;100442.59;4949917;28;20205;-79
2022/07/20 08:26:14;;;;;;;10.68;5.40;;;28.90;45.40;;;29.64;37.34;100443.66;4965437;28;20098;-77
2022/07/20 08:28:41;;;;;;;18.15;5.57;;;29.10;45.80;;;29.71;36.66;100439.28;4965343;28;20060;-76
2022/07/20 08:31:08;;;;;;;11.73;6.05;;;29.20;45.10;;;29.81;36.73;100454.59;4949381;29;20048;-77
2022/07/20 08:33:35;;;;;;;5.90;5.30;;;29.20;45.40;;;29.76;37.09;100463.22;4967958;28;20125;-77
2022/07/20 08:36:03;;;;;;;8.30;5.97;;;29.30;45.50;;;29.82;37.15;100453.59;4968162;28;20075;-77
2022/07/20 08:38:30;;;;;;;7.88;5.57;;;29.30;45.40;;;29.90;36.37;100458.19;4968508;28;20079;-77
2022/07/20 08:40:57;;;;;;;8.38;5.80;;;29.40;45.30;;;30.01;36.62;100455.22;4986755;28;20035;-76
2022/07/20 08:43:25;;;;;;;10.05;5.80;;;29.40;45.40;;;30.00;36.38;100464.38;4993984;28;20039;-76
2022/07/20 08:45:52;;;;;;;6.63;5.38;;;29.50;45.60;;;30.13;37.35;100464.81;4974907;28;20050;-77
2022/07/20 08:48:19;;;;;;;6.20;5.30;;;29.60;45.80;;;30.16;36.67;100460.06;4967198;28;20055;-77
2022/07/20 08:50:48;;;;;;;6.57;5.50;;;29.60;45.60;;;30.26;36.91;100463.47;4966922;28;20433;-78
2022/07/20 08:53:18;;;;;;;12.52;6.85;;;29.70;45.80;;;30.36;37.47;100468.75;4968358;28;20047;-77
2022/07/20 08:55:47;;;;;;;7.93;6.03;;;29.70;46.20;;;30.43;38.02;100469.81;4967113;28;20445;-76
2022/07/20 08:58:14;;;;;;;12.63;6.60;;;29.80;46.30;;;30.52;38.16;100476.97;4968555;28;20474;-78
2022/07/20 09:00:42;;;;;;;9.50;6.55;;;29.90;46.50;;;30.59;38.37;100479.00;4966139;28;20055;-77
2022/07/20 09:03:10;;;;;;;7.68;5.97;;;30.00;46.60;;;30.64;38.51;100472.09;4963163;28;20043;-77
2022/07/20 09:05:40;;;;;;;10.00;7.30;;;30.00;46.70;;;30.74;37.62;100479.25;4982196;28;20489;-77
2022/07/20 09:08:17;;;;;;;10.57;5.82;;;30.20;46.40;;;30.78;37.47;100473.31;4981323;28;20453;-77
2022/07/20 09:10:46;;;;;;;11.85;6.40;;;30.20;46.10;;;30.78;37.95;100478.75;4965817;28;20051;-77
2022/07/20 09:13:18;;;;;;;12.35;6.28;;;30.20;46.40;;;30.86;37.48;100474.34;4949948;28;20086;-77
2022/07/20 09:15:54;;;;;;;9.38;6.32;;;30.30;46.30;;;30.90;37.50;100473.00;4949808;29;20054;-77
2022/07/20 09:18:31;;;;;;;7.53;6.40;;;30.30;46.20;;;31.04;37.43;100466.03;4964492;28;20519;-77
2022/07/20 09:21:00;;;;;;;10.15;6.40;;;30.40;46.30;;;31.02;36.94;100468.06;4971786;28;20047;-77
2022/07/20 09:23:54;;;;;;;8.40;6.63;;;30.50;46.20;;;31.15;36.60;100459.44;4958793;28;20127;-78
2022/07/20 09:26:22;;;;;;;10.73;7.50;;;30.50;46.00;;;31.05;36.51;100467.72;4956681;28;20102;-77
2022/07/20 09:28:55;;;;;;;8.30;7.38;;;30.50;45.80;;;31.31;37.49;100475.75;4976621;28;20083;-77
2022/07/20 09:31:30;;;;;;;12.95;8.25;;;30.60;46.50;;;31.23;37.96;100475.75;4975712;28;20051;-77
2022/07/20 09:34:01;;;;;;;12.13;8.82;;;30.70;46.50;;;31.21;38.45;100473.19;4976324;28;20058;-78
2022/07/20 09:36:31;;;;;;;11.32;8.32;;;30.70;46.80;;;31.27;38.95;100468.94;4975655;28;20047;-77
2022/07/20 09:39:10;;;;;;;13.93;7.97;;;30.70;47.00;;;31.34;38.56;100471.84;4973068;28;20051;-76
2022/07/20 09:41:41;;;;;;;11.95;8.43;;;30.70;47.00;;;31.45;38.27;100476.94;4960383;28;20043;-78
2022/07/20 09:44:19;;;;;;;10.52;8.38;;;30.80;47.10;;;31.40;38.78;100472.00;4975649;28;20047;-77
2022/07/20 09:46:46;;;;;;;10.13;7.75;;;30.80;47.10;;;31.53;38.87;100467.91;4989237;28;20106;-77
2022/07/20 09:49:13;;;;;;;9.25;7.55;;;30.90;47.30;;;31.52;38.55;100477.09;4972335;28;20678;-77
2022/07/20 09:51:46;;;;;;;11.32;8.15;;;31.00;47.10;;;31.60;38.49;100462.63;4989608;28;20062;-78
2022/07/20 09:54:17;;;;;;;14.90;9.00;;;31.00;47.10;;;31.76;38.79;100459.00;4987008;28;20066;-77
2022/07/20 09:56:51;;;;;;;10.50;8.68;;;31.10;47.30;;;31.76;38.84;100467.16;4985923;28;20078;-76
2022/07/20 09:59:21;;;;;;;11.30;9.52;;;31.20;47.30;;;31.77;38.71;100466.19;4968176;28;20110;-76
2022/07/20 10:01:54;;;;;;;11.70;8.95;;;31.30;47.30;;;31.94;38.61;100467.84;4954393;28;20050;-76
2022/07/20 10:04:22;;;;;;;11.13;8.88;;;31.30;47.30;;;32.19;38.46;100467.72;4969295;28;20102;-79
2022/07/20 10:06:52;;;;;;;13.30;9.43;;;31.40;47.40;;;32.23;37.45;100470.97;4969367;28;20054;-78
2022/07/20 10:09:20;;;;;;;11.07;8.88;;;31.50;46.80;;;32.32;37.77;100459.00;4976704;28;20058;-76
2022/07/20 10:11:48;;;;;;;14.35;9.93;;;31.70;46.90;;;32.53;37.18;100449.38;4968556;28;20086;-79
2022/07/20 10:14:21;;;;;;;9.63;8.45;;;31.80;46.80;;;32.56;36.85;100443.59;4968554;28;20039;-77
2022/07/20 10:16:51;;;;;;;11.38;8.90;;;31.90;46.60;;;32.68;36.68;100447.59;4967171;28;20054;-77
2022/07/20 10:19:21;;;;;;;12.43;9.15;;;32.00;46.70;;;32.72;36.34;100445.34;4983111;28;20509;-76
2022/07/20 10:21:53;;;;;;;;;;;32.00;46.40;;;32.85;36.23;100439.28;4968902;28;20567;-76